sensor_id;sensor_type;location;lat;lon;timestamp;P1;durP1;ratioP1;P2;durP2;ratioP2
8017;SDS011;4054;52.666;4.770;2023-09-18T00:00:26;98.40;;;76.65;;
8017;SDS011;4054;52.666;4.770;2023-09-18T00:00:59;114.03;;;78.80;;
8017;SDS011;4054;52.666;4.770;2023-09-18T00:01:30;95.60;;;77.40;;
8017;SDS011;4054;52.666;4.770;2023-09-18T00:02:02;101.95;;;78.72;;
8017;SDS011;4054;52.666;4.770;2023-09-18T00:02:34;99.53;;;78.20;;
8017;SDS011;4054;52.666;4.770;2023-09-18T00:03:07;101.80;;;78.03;;
8017;SDS011;4054;52.666;4.770;2023-09-18T00:03:39;101.00;;;78.35;;
8017;SDS011;4054;52.666;4.770;2023-09-18T00:04:11;96.82;;;78.68;;
8017;SDS011;4054;52.666;4.770;2023-09-18T00:04:43;108.68;;;79.60;;
8017;SDS011;4054;52.666;4.770;2023-09-18T00:05:16;97.32;;;78.85;;
8017;SDS011;4054;52.666;4.770;2023-09-18T00:05:48;101.35;;;77.95;;
8017;SDS011;4054;52.666;4.770;2023-09-18T00:06:20;106.68;;;79.35;;
8017;SDS011;4054;52.666;4.770;2023-09-18T00:06:55;98.43;;;77.20;;
8017;SDS011;4054;52.666;4.770;2023-09-18T00:07:26;95.53;;;79.07;;
8017;SDS011;4054;52.666;4.770;2023-09-18T00:08:00;102.15;;;78.20;;
8017;SDS011;4054;52.666;4.770;2023-09-18T00:08:33;100.70;;;77.55;;
8017;SDS011;4054;52.666;4.770;2023-09-18T00:09:06;104.00;;;78.07;;
8017;SDS011;4054;52.666;4.770;2023-09-18T00:09:38;106.18;;;78.70;;
8017;SDS011;4054;52.666;4.770;2023-09-18T00:10:10;104.40;;;78.80;;
8017;SDS011;4054;52.666;4.770;2023-09-18T00:10:46;103.18;;;77.57;;
8017;SDS011;4054;52.666;4.770;2023-09-18T00:11:19;101.45;;;78.72;;
8017;SDS011;4054;52.666;4.770;2023-09-18T00:11:50;101.90;;;79.25;;
8017;SDS011;4054;52.666;4.770;2023-09-18T00:12:24;98.28;;;77.88;;
8017;SDS011;4054;52.666;4.770;2023-09-18T00:12:57;89.80;;;78.45;;
8017;SDS011;4054;52.666;4.770;2023-09-18T00:13:28;105.13;;;76.80;;
8017;SDS011;4054;52.666;4.770;2023-09-18T00:14:00;99.97;;;77.78;;
8017;SDS011;4054;52.666;4.770;2023-09-18T00:14:34;101.90;;;78.03;;
8017;SDS011;4054;52.666;4.770;2023-09-18T00:15:06;99.50;;;78.88;;
8017;SDS011;4054;52.666;4.770;2023-09-18T00:15:40;97.50;;;77.97;;
8017;SDS011;4054;52.666;4.770;2023-09-18T00:16:14;103.57;;;79.00;;
8017;SDS011;4054;52.666;4.770;2023-09-18T00:16:46;101.47;;;77.83;;
8017;SDS011;4054;52.666;4.770;2023-09-18T00:17:29;101.03;;;77.75;;
8017;SDS011;4054;52.666;4.770;2023-09-18T00:18:02;97.43;;;77.23;;
8017;SDS011;4054;52.666;4.770;2023-09-18T00:18:34;93.45;;;77.68;;
8017;SDS011;4054;52.666;4.770;2023-09-18T00:19:06;107.55;;;79.35;;
8017;SDS011;4054;52.666;4.770;2023-09-18T00:19:39;97.47;;;77.25;;
8017;SDS011;4054;52.666;4.770;2023-09-18T00:20:12;91.38;;;78.35;;
8017;SDS011;4054;52.666;4.770;2023-09-18T00:20:45;95.35;;;78.00;;
8017;SDS011;4054;52.666;4.770;2023-09-18T00:21:17;101.07;;;77.32;;
8017;SDS011;4054;52.666;4.770;2023-09-18T00:21:49;97.65;;;76.70;;
8017;SDS011;4054;52.666;4.770;2023-09-18T00:22:24;97.35;;;76.85;;
8017;SDS011;4054;52.666;4.770;2023-09-18T00:22:56;97.82;;;77.68;;
8017;SDS011;4054;52.666;4.770;2023-09-18T00:23:29;93.30;;;76.80;;
8017;SDS011;4054;52.666;4.770;2023-09-18T00:24:03;102.75;;;78.00;;
8017;SDS011;4054;52.666;4.770;2023-09-18T00:24:35;87.22;;;76.70;;
8017;SDS011;4054;52.666;4.770;2023-09-18T00:25:07;100.25;;;77.50;;
8017;SDS011;4054;52.666;4.770;2023-09-18T00:25:38;98.10;;;77.68;;
8017;SDS011;4054;52.666;4.770;2023-09-18T00:26:14;93.20;;;75.88;;
8017;SDS011;4054;52.666;4.770;2023-09-18T00:26:48;93.05;;;78.20;;
8017;SDS011;4054;52.666;4.770;2023-09-18T00:27:20;95.35;;;76.82;;
8017;SDS011;4054;52.666;4.770;2023-09-18T00:27:52;93.22;;;76.05;;
8017;SDS011;4054;52.666;4.770;2023-09-18T00:28:25;96.35;;;77.38;;
8017;SDS011;4054;52.666;4.770;2023-09-18T00:28:56;100.32;;;76.68;;
8017;SDS011;4054;52.666;4.770;2023-09-18T00:29:28;92.20;;;77.47;;
8017;SDS011;4054;52.666;4.770;2023-09-18T00:30:00;96.13;;;77.15;;
8017;SDS011;4054;52.666;4.770;2023-09-18T00:30:33;105.70;;;77.88;;
8017;SDS011;4054;52.666;4.770;2023-09-18T00:31:05;96.55;;;77.05;;
8017;SDS011;4054;52.666;4.770;2023-09-18T00:31:37;101.00;;;76.50;;
8017;SDS011;4054;52.666;4.770;2023-09-18T00:32:09;100.95;;;76.85;;
8017;SDS011;4054;52.666;4.770;2023-09-18T00:32:42;103.22;;;78.45;;
8017;SDS011;4054;52.666;4.770;2023-09-18T00:33:13;98.32;;;76.60;;
8017;SDS011;4054;52.666;4.770;2023-09-18T00:33:45;99.53;;;77.53;;
8017;SDS011;4054;52.666;4.770;2023-09-18T00:34:17;87.47;;;77.50;;
8017;SDS011;4054;52.666;4.770;2023-09-18T00:34:50;97.03;;;77.05;;
8017;SDS011;4054;52.666;4.770;2023-09-18T00:35:22;103.45;;;78.53;;
8017;SDS011;4054;52.666;4.770;2023-09-18T00:35:54;96.38;;;77.90;;
8017;SDS011;4054;52.666;4.770;2023-09-18T00:36:26;96.50;;;77.75;;
8017;SDS011;4054;52.666;4.770;2023-09-18T00:36:58;92.70;;;76.18;;
8017;SDS011;4054;52.666;4.770;2023-09-18T00:37:31;86.20;;;76.95;;
8017;SDS011;4054;52.666;4.770;2023-09-18T00:38:04;101.07;;;76.95;;
8017;SDS011;4054;52.666;4.770;2023-09-18T00:38:39;93.80;;;75.53;;
8017;SDS011;4054;52.666;4.770;2023-09-18T00:39:11;99.22;;;76.50;;
8017;SDS011;4054;52.666;4.770;2023-09-18T00:39:43;89.00;;;75.85;;
8017;SDS011;4054;52.666;4.770;2023-09-18T00:40:15;97.63;;;77.20;;
8017;SDS011;4054;52.666;4.770;2023-09-18T00:40:47;95.32;;;78.30;;
8017;SDS011;4054;52.666;4.770;2023-09-18T00:41:19;93.60;;;75.60;;
8017;SDS011;4054;52.666;4.770;2023-09-18T00:41:52;90.75;;;77.30;;
8017;SDS011;4054;52.666;4.770;2023-09-18T00:42:25;93.38;;;76.43;;
8017;SDS011;4054;52.666;4.770;2023-09-18T00:42:57;96.68;;;77.80;;
8017;SDS011;4054;52.666;4.770;2023-09-18T00:43:29;101.82;;;77.10;;
8017;SDS011;4054;52.666;4.770;2023-09-18T00:44:02;99.57;;;76.50;;
8017;SDS011;4054;52.666;4.770;2023-09-18T00:44:34;91.03;;;76.50;;
8017;SDS011;4054;52.666;4.770;2023-09-18T00:45:07;93.07;;;76.75;;
8017;SDS011;4054;52.666;4.770;2023-09-18T00:45:40;97.57;;;78.05;;
8017;SDS011;4054;52.666;4.770;2023-09-18T00:46:13;100.25;;;77.93;;
8017;SDS011;4054;52.666;4.770;2023-09-18T00:46:45;94.65;;;76.43;;
8017;SDS011;4054;52.666;4.770;2023-09-18T00:47:17;96.10;;;78.13;;
8017;SDS011;4054;52.666;4.770;2023-09-18T00:47:49;87.00;;;75.25;;
8017;SDS011;4054;52.666;4.770;2023-09-18T00:48:22;94.07;;;77.13;;
8017;SDS011;4054;52.666;4.770;2023-09-18T00:48:54;98.13;;;76.57;;
8017;SDS011;4054;52.666;4.770;2023-09-18T00:49:26;93.43;;;77.30;;
8017;SDS011;4054;52.666;4.770;2023-09-18T00:49:58;98.50;;;77.05;;
8017;SDS011;4054;52.666;4.770;2023-09-18T00:50:31;89.53;;;77.63;;
8017;SDS011;4054;52.666;4.770;2023-09-18T00:51:03;91.45;;;76.03;;
8017;SDS011;4054;52.666;4.770;2023-09-18T00:51:35;102.88;;;77.32;;
8017;SDS011;4054;52.666;4.770;2023-09-18T00:52:07;93.03;;;76.53;;
8017;SDS011;4054;52.666;4.770;2023-09-18T00:52:41;92.40;;;75.85;;
8017;SDS011;4054;52.666;4.770;2023-09-18T00:53:14;91.20;;;76.47;;
8017;SDS011;4054;52.666;4.770;2023-09-18T00:53:47;94.47;;;77.32;;
8017;SDS011;4054;52.666;4.770;2023-09-18T00:54:21;98.13;;;76.80;;
8017;SDS011;4054;52.666;4.770;2023-09-18T00:54:52;87.50;;;78.10;;
8017;SDS011;4054;52.666;4.770;2023-09-18T00:55:24;88.32;;;77.75;;
8017;SDS011;4054;52.666;4.770;2023-09-18T00:55:57;101.90;;;77.55;;
8017;SDS011;4054;52.666;4.770;2023-09-18T00:56:30;85.47;;;75.82;;
8017;SDS011;4054;52.666;4.770;2023-09-18T00:57:04;86.63;;;76.30;;
8017;SDS011;4054;52.666;4.770;2023-09-18T00:57:36;95.53;;;76.30;;
8017;SDS011;4054;52.666;4.770;2023-09-18T00:58:08;90.78;;;75.70;;
8017;SDS011;4054;52.666;4.770;2023-09-18T00:58:41;96.65;;;76.18;;
8017;SDS011;4054;52.666;4.770;2023-09-18T00:59:13;86.13;;;74.53;;
8017;SDS011;4054;52.666;4.770;2023-09-18T00:59:45;91.88;;;76.03;;
8017;SDS011;4054;52.666;4.770;2023-09-18T01:00:17;90.63;;;75.15;;
8017;SDS011;4054;52.666;4.770;2023-09-18T01:00:50;86.97;;;75.13;;
8017;SDS011;4054;52.666;4.770;2023-09-18T01:01:22;85.97;;;76.43;;
8017;SDS011;4054;52.666;4.770;2023-09-18T01:01:55;95.65;;;77.53;;
8017;SDS011;4054;52.666;4.770;2023-09-18T01:02:26;85.00;;;75.68;;
8017;SDS011;4054;52.666;4.770;2023-09-18T01:03:00;92.20;;;76.30;;
8017;SDS011;4054;52.666;4.770;2023-09-18T01:03:33;87.85;;;75.40;;
8017;SDS011;4054;52.666;4.770;2023-09-18T01:04:05;91.22;;;76.78;;
8017;SDS011;4054;52.666;4.770;2023-09-18T01:04:37;95.90;;;77.18;;
8017;SDS011;4054;52.666;4.770;2023-09-18T01:05:15;86.97;;;75.85;;
8017;SDS011;4054;52.666;4.770;2023-09-18T01:05:48;84.28;;;75.05;;
8017;SDS011;4054;52.666;4.770;2023-09-18T01:06:20;86.88;;;75.18;;
8017;SDS011;4054;52.666;4.770;2023-09-18T01:06:53;91.38;;;76.22;;
8017;SDS011;4054;52.666;4.770;2023-09-18T01:07:28;85.13;;;75.43;;
8017;SDS011;4054;52.666;4.770;2023-09-18T01:08:00;91.60;;;75.13;;
8017;SDS011;4054;52.666;4.770;2023-09-18T01:08:32;85.22;;;75.40;;
8017;SDS011;4054;52.666;4.770;2023-09-18T01:09:07;85.40;;;74.45;;
8017;SDS011;4054;52.666;4.770;2023-09-18T01:09:44;84.78;;;75.47;;
8017;SDS011;4054;52.666;4.770;2023-09-18T01:10:15;85.45;;;76.30;;
8017;SDS011;4054;52.666;4.770;2023-09-18T01:10:52;86.25;;;75.03;;
8017;SDS011;4054;52.666;4.770;2023-09-18T01:11:29;83.60;;;74.43;;
8017;SDS011;4054;52.666;4.770;2023-09-18T01:12:04;91.00;;;76.47;;
8017;SDS011;4054;52.666;4.770;2023-09-18T01:12:39;90.22;;;74.82;;
8017;SDS011;4054;52.666;4.770;2023-09-18T01:13:12;95.80;;;76.55;;
8017;SDS011;4054;52.666;4.770;2023-09-18T01:13:51;86.93;;;74.95;;
8017;SDS011;4054;52.666;4.770;2023-09-18T01:14:25;85.13;;;75.57;;
8017;SDS011;4054;52.666;4.770;2023-09-18T01:15:01;89.88;;;76.57;;
8017;SDS011;4054;52.666;4.770;2023-09-18T01:15:35;94.85;;;76.35;;
8017;SDS011;4054;52.666;4.770;2023-09-18T01:16:09;89.78;;;76.10;;
8017;SDS011;4054;52.666;4.770;2023-09-18T01:16:44;88.43;;;75.63;;
8017;SDS011;4054;52.666;4.770;2023-09-18T01:17:21;89.93;;;75.88;;
8017;SDS011;4054;52.666;4.770;2023-09-18T01:17:54;84.88;;;75.28;;
8017;SDS011;4054;52.666;4.770;2023-09-18T01:18:26;84.68;;;75.07;;
8017;SDS011;4054;52.666;4.770;2023-09-18T01:18:58;88.40;;;75.00;;
8017;SDS011;4054;52.666;4.770;2023-09-18T01:19:39;85.55;;;76.15;;
8017;SDS011;4054;52.666;4.770;2023-09-18T01:20:12;83.82;;;74.68;;
8017;SDS011;4054;52.666;4.770;2023-09-18T01:20:44;90.03;;;74.88;;
8017;SDS011;4054;52.666;4.770;2023-09-18T01:21:18;84.18;;;74.00;;
8017;SDS011;4054;52.666;4.770;2023-09-18T01:21:51;87.18;;;75.50;;
8017;SDS011;4054;52.666;4.770;2023-09-18T01:22:23;83.35;;;74.35;;
8017;SDS011;4054;52.666;4.770;2023-09-18T01:22:57;83.93;;;74.82;;
8017;SDS011;4054;52.666;4.770;2023-09-18T01:23:28;86.45;;;73.75;;
8017;SDS011;4054;52.666;4.770;2023-09-18T01:24:00;88.35;;;76.85;;
8017;SDS011;4054;52.666;4.770;2023-09-18T01:24:33;83.35;;;74.25;;
8017;SDS011;4054;52.666;4.770;2023-09-18T01:25:06;85.88;;;75.85;;
8017;SDS011;4054;52.666;4.770;2023-09-18T01:25:38;85.60;;;74.20;;
8017;SDS011;4054;52.666;4.770;2023-09-18T01:26:10;83.85;;;73.95;;
8017;SDS011;4054;52.666;4.770;2023-09-18T01:26:44;89.38;;;76.40;;
8017;SDS011;4054;52.666;4.770;2023-09-18T01:27:16;82.80;;;73.93;;
8017;SDS011;4054;52.666;4.770;2023-09-18T01:27:48;83.80;;;74.65;;
8017;SDS011;4054;52.666;4.770;2023-09-18T01:28:20;89.55;;;74.72;;
8017;SDS011;4054;52.666;4.770;2023-09-18T01:28:53;82.20;;;73.22;;
8017;SDS011;4054;52.666;4.770;2023-09-18T01:29:25;80.35;;;71.93;;
8017;SDS011;4054;52.666;4.770;2023-09-18T01:29:59;88.63;;;74.55;;
8017;SDS011;4054;52.666;4.770;2023-09-18T01:30:31;82.63;;;73.75;;
8017;SDS011;4054;52.666;4.770;2023-09-18T01:31:06;84.90;;;74.78;;
8017;SDS011;4054;52.666;4.770;2023-09-18T01:31:38;81.95;;;73.10;;
8017;SDS011;4054;52.666;4.770;2023-09-18T01:32:12;83.55;;;74.15;;
8017;SDS011;4054;52.666;4.770;2023-09-18T01:32:44;86.93;;;74.95;;
8017;SDS011;4054;52.666;4.770;2023-09-18T01:33:18;82.35;;;73.57;;
8017;SDS011;4054;52.666;4.770;2023-09-18T01:33:50;82.93;;;74.07;;
8017;SDS011;4054;52.666;4.770;2023-09-18T01:34:25;82.35;;;73.80;;
8017;SDS011;4054;52.666;4.770;2023-09-18T01:34:59;83.43;;;74.40;;
8017;SDS011;4054;52.666;4.770;2023-09-18T01:35:31;81.07;;;72.55;;
8017;SDS011;4054;52.666;4.770;2023-09-18T01:36:05;81.88;;;73.15;;
8017;SDS011;4054;52.666;4.770;2023-09-18T01:36:39;82.90;;;74.25;;
8017;SDS011;4054;52.666;4.770;2023-09-18T01:37:11;82.60;;;73.88;;
8017;SDS011;4054;52.666;4.770;2023-09-18T01:37:43;80.30;;;71.72;;
8017;SDS011;4054;52.666;4.770;2023-09-18T01:38:17;82.88;;;74.03;;
8017;SDS011;4054;52.666;4.770;2023-09-18T01:38:50;82.95;;;73.78;;
8017;SDS011;4054;52.666;4.770;2023-09-18T01:39:22;81.38;;;72.65;;
8017;SDS011;4054;52.666;4.770;2023-09-18T01:39:55;80.57;;;72.40;;
8017;SDS011;4054;52.666;4.770;2023-09-18T01:40:32;82.97;;;73.63;;
8017;SDS011;4054;52.666;4.770;2023-09-18T01:41:04;82.47;;;73.72;;
8017;SDS011;4054;52.666;4.770;2023-09-18T01:41:36;82.00;;;73.40;;
8017;SDS011;4054;52.666;4.770;2023-09-18T01:42:09;82.20;;;73.53;;
8017;SDS011;4054;52.666;4.770;2023-09-18T01:42:41;84.25;;;73.05;;
8017;SDS011;4054;52.666;4.770;2023-09-18T01:43:14;81.80;;;73.00;;
8017;SDS011;4054;52.666;4.770;2023-09-18T01:43:47;80.57;;;72.10;;
8017;SDS011;4054;52.666;4.770;2023-09-18T01:44:19;79.53;;;71.32;;
8017;SDS011;4054;52.666;4.770;2023-09-18T01:44:51;81.50;;;72.97;;
8017;SDS011;4054;52.666;4.770;2023-09-18T01:45:24;79.60;;;71.43;;
8017;SDS011;4054;52.666;4.770;2023-09-18T01:45:56;80.97;;;72.30;;
8017;SDS011;4054;52.666;4.770;2023-09-18T01:46:28;80.80;;;72.53;;
8017;SDS011;4054;52.666;4.770;2023-09-18T01:47:01;78.03;;;70.57;;
8017;SDS011;4054;52.666;4.770;2023-09-18T01:47:35;79.85;;;71.72;;
8017;SDS011;4054;52.666;4.770;2023-09-18T01:48:07;79.68;;;71.45;;
8017;SDS011;4054;52.666;4.770;2023-09-18T01:48:44;80.30;;;72.40;;
8017;SDS011;4054;52.666;4.770;2023-09-18T01:49:25;81.25;;;72.35;;
8017;SDS011;4054;52.666;4.770;2023-09-18T01:49:57;80.35;;;71.95;;
8017;SDS011;4054;52.666;4.770;2023-09-18T01:50:30;81.68;;;72.57;;
8017;SDS011;4054;52.666;4.770;2023-09-18T01:51:01;81.30;;;72.82;;
8017;SDS011;4054;52.666;4.770;2023-09-18T01:51:34;81.22;;;72.70;;
8017;SDS011;4054;52.666;4.770;2023-09-18T01:52:07;79.15;;;71.50;;
8017;SDS011;4054;52.666;4.770;2023-09-18T01:52:39;81.18;;;72.50;;
8017;SDS011;4054;52.666;4.770;2023-09-18T01:53:10;80.82;;;72.72;;
8017;SDS011;4054;52.666;4.770;2023-09-18T01:53:44;78.75;;;71.10;;
8017;SDS011;4054;52.666;4.770;2023-09-18T01:54:16;80.22;;;71.63;;
8017;SDS011;4054;52.666;4.770;2023-09-18T01:54:48;81.10;;;72.20;;
8017;SDS011;4054;52.666;4.770;2023-09-18T01:55:21;78.95;;;71.05;;
8017;SDS011;4054;52.666;4.770;2023-09-18T01:55:53;79.43;;;71.32;;
8017;SDS011;4054;52.666;4.770;2023-09-18T01:56:25;80.07;;;72.15;;
8017;SDS011;4054;52.666;4.770;2023-09-18T01:56:57;78.63;;;71.25;;
8017;SDS011;4054;52.666;4.770;2023-09-18T01:57:30;79.10;;;71.85;;
8017;SDS011;4054;52.666;4.770;2023-09-18T01:58:01;78.93;;;71.13;;
8017;SDS011;4054;52.666;4.770;2023-09-18T01:58:35;81.47;;;73.20;;
8017;SDS011;4054;52.666;4.770;2023-09-18T01:59:07;82.22;;;73.93;;
8017;SDS011;4054;52.666;4.770;2023-09-18T01:59:39;81.82;;;72.78;;
8017;SDS011;4054;52.666;4.770;2023-09-18T02:01:54;80.53;;;72.32;;
8017;SDS011;4054;52.666;4.770;2023-09-18T02:02:28;79.70;;;71.93;;
8017;SDS011;4054;52.666;4.770;2023-09-18T02:03:20;80.70;;;72.28;;
8017;SDS011;4054;52.666;4.770;2023-09-18T02:04:14;79.10;;;71.07;;
8017;SDS011;4054;52.666;4.770;2023-09-18T02:05:07;79.68;;;71.57;;
8017;SDS011;4054;52.666;4.770;2023-09-18T02:05:40;78.95;;;71.20;;
8017;SDS011;4054;52.666;4.770;2023-09-18T02:06:13;78.57;;;70.85;;
8017;SDS011;4054;52.666;4.770;2023-09-18T02:06:46;79.40;;;71.57;;
8017;SDS011;4054;52.666;4.770;2023-09-18T02:07:18;78.78;;;70.90;;
8017;SDS011;4054;52.666;4.770;2023-09-18T02:07:50;80.33;;;71.93;;
8017;SDS011;4054;52.666;4.770;2023-09-18T02:08:23;79.53;;;71.63;;
8017;SDS011;4054;52.666;4.770;2023-09-18T02:08:57;78.07;;;70.25;;
8017;SDS011;4054;52.666;4.770;2023-09-18T02:09:29;78.55;;;70.55;;
8017;SDS011;4054;52.666;4.770;2023-09-18T02:10:01;78.22;;;70.60;;
8017;SDS011;4054;52.666;4.770;2023-09-18T02:10:33;78.00;;;70.53;;
8017;SDS011;4054;52.666;4.770;2023-09-18T02:11:06;79.25;;;71.38;;
8017;SDS011;4054;52.666;4.770;2023-09-18T02:11:38;77.60;;;70.22;;
8017;SDS011;4054;52.666;4.770;2023-09-18T02:12:10;79.38;;;71.50;;
8017;SDS011;4054;52.666;4.770;2023-09-18T02:12:48;77.70;;;70.40;;
8017;SDS011;4054;52.666;4.770;2023-09-18T02:13:20;77.75;;;70.25;;
8017;SDS011;4054;52.666;4.770;2023-09-18T02:13:52;79.28;;;71.30;;
8017;SDS011;4054;52.666;4.770;2023-09-18T02:14:24;79.60;;;71.50;;
8017;SDS011;4054;52.666;4.770;2023-09-18T02:14:57;78.22;;;70.32;;
8017;SDS011;4054;52.666;4.770;2023-09-18T02:15:30;79.07;;;71.65;;
8017;SDS011;4054;52.666;4.770;2023-09-18T02:16:02;78.93;;;71.38;;
8017;SDS011;4054;52.666;4.770;2023-09-18T02:16:35;78.50;;;70.85;;
8017;SDS011;4054;52.666;4.770;2023-09-18T02:17:08;77.40;;;69.85;;
8017;SDS011;4054;52.666;4.770;2023-09-18T02:17:40;77.35;;;70.05;;
8017;SDS011;4054;52.666;4.770;2023-09-18T02:18:12;77.75;;;70.55;;
8017;SDS011;4054;52.666;4.770;2023-09-18T02:18:44;79.80;;;72.05;;
8017;SDS011;4054;52.666;4.770;2023-09-18T02:19:16;78.50;;;70.80;;
8017;SDS011;4054;52.666;4.770;2023-09-18T02:19:49;78.28;;;71.00;;
8017;SDS011;4054;52.666;4.770;2023-09-18T02:20:21;79.05;;;71.45;;
8017;SDS011;4054;52.666;4.770;2023-09-18T02:20:53;79.53;;;71.97;;
8017;SDS011;4054;52.666;4.770;2023-09-18T02:21:24;77.07;;;70.13;;
8017;SDS011;4054;52.666;4.770;2023-09-18T02:21:57;78.07;;;70.88;;
8017;SDS011;4054;52.666;4.770;2023-09-18T02:22:30;78.00;;;70.63;;
8017;SDS011;4054;52.666;4.770;2023-09-18T02:23:02;78.40;;;70.65;;
8017;SDS011;4054;52.666;4.770;2023-09-18T02:23:34;79.60;;;71.55;;
8017;SDS011;4054;52.666;4.770;2023-09-18T02:24:09;79.65;;;71.72;;
8017;SDS011;4054;52.666;4.770;2023-09-18T02:24:40;78.20;;;70.53;;
8017;SDS011;4054;52.666;4.770;2023-09-18T02:25:13;78.78;;;71.30;;
8017;SDS011;4054;52.666;4.770;2023-09-18T02:25:44;77.85;;;70.72;;
8017;SDS011;4054;52.666;4.770;2023-09-18T02:26:19;77.70;;;70.60;;
8017;SDS011;4054;52.666;4.770;2023-09-18T02:26:50;77.25;;;70.07;;
8017;SDS011;4054;52.666;4.770;2023-09-18T02:27:22;79.72;;;71.50;;
8017;SDS011;4054;52.666;4.770;2023-09-18T02:27:55;80.05;;;72.05;;
8017;SDS011;4054;52.666;4.770;2023-09-18T02:28:27;78.13;;;70.72;;
8017;SDS011;4054;52.666;4.770;2023-09-18T02:28:59;79.78;;;71.72;;
8017;SDS011;4054;52.666;4.770;2023-09-18T02:29:32;77.65;;;70.43;;
8017;SDS011;4054;52.666;4.770;2023-09-18T02:30:04;81.28;;;73.22;;
8017;SDS011;4054;52.666;4.770;2023-09-18T02:30:36;79.68;;;71.43;;
8017;SDS011;4054;52.666;4.770;2023-09-18T02:31:08;79.53;;;71.97;;
8017;SDS011;4054;52.666;4.770;2023-09-18T02:31:41;79.10;;;71.00;;
8017;SDS011;4054;52.666;4.770;2023-09-18T02:32:13;77.60;;;70.40;;
8017;SDS011;4054;52.666;4.770;2023-09-18T02:32:45;80.95;;;72.35;;
8017;SDS011;4054;52.666;4.770;2023-09-18T02:33:18;79.72;;;71.25;;
8017;SDS011;4054;52.666;4.770;2023-09-18T02:33:50;79.45;;;71.50;;
8017;SDS011;4054;52.666;4.770;2023-09-18T02:34:22;81.03;;;72.57;;
8017;SDS011;4054;52.666;4.770;2023-09-18T02:34:53;78.90;;;71.28;;
8017;SDS011;4054;52.666;4.770;2023-09-18T02:35:26;79.25;;;72.00;;
8017;SDS011;4054;52.666;4.770;2023-09-18T02:35:58;80.00;;;71.97;;
8017;SDS011;4054;52.666;4.770;2023-09-18T02:36:30;79.40;;;71.70;;
8017;SDS011;4054;52.666;4.770;2023-09-18T02:37:03;78.75;;;70.82;;
8017;SDS011;4054;52.666;4.770;2023-09-18T02:37:35;78.25;;;71.05;;
8017;SDS011;4054;52.666;4.770;2023-09-18T02:38:06;80.15;;;71.72;;
8017;SDS011;4054;52.666;4.770;2023-09-18T02:38:38;79.22;;;71.53;;
8017;SDS011;4054;52.666;4.770;2023-09-18T02:39:12;79.50;;;71.68;;
8017;SDS011;4054;52.666;4.770;2023-09-18T02:39:44;78.22;;;70.95;;
8017;SDS011;4054;52.666;4.770;2023-09-18T02:40:16;79.32;;;71.78;;
8017;SDS011;4054;52.666;4.770;2023-09-18T02:40:48;77.55;;;70.38;;
8017;SDS011;4054;52.666;4.770;2023-09-18T02:41:21;80.68;;;72.55;;
8017;SDS011;4054;52.666;4.770;2023-09-18T02:41:52;80.63;;;72.97;;
8017;SDS011;4054;52.666;4.770;2023-09-18T02:42:24;79.93;;;71.88;;
8017;SDS011;4054;52.666;4.770;2023-09-18T02:42:56;80.10;;;72.00;;
8017;SDS011;4054;52.666;4.770;2023-09-18T02:43:29;79.95;;;71.80;;
8017;SDS011;4054;52.666;4.770;2023-09-18T02:44:00;77.45;;;70.30;;
8017;SDS011;4054;52.666;4.770;2023-09-18T02:44:32;79.00;;;71.45;;
8017;SDS011;4054;52.666;4.770;2023-09-18T02:45:06;78.82;;;71.43;;
8017;SDS011;4054;52.666;4.770;2023-09-18T02:45:39;77.95;;;70.55;;
8017;SDS011;4054;52.666;4.770;2023-09-18T02:46:12;77.40;;;70.32;;
8017;SDS011;4054;52.666;4.770;2023-09-18T02:46:44;77.90;;;70.70;;
8017;SDS011;4054;52.666;4.770;2023-09-18T02:47:17;80.05;;;72.13;;
8017;SDS011;4054;52.666;4.770;2023-09-18T02:47:49;81.82;;;73.60;;
8017;SDS011;4054;52.666;4.770;2023-09-18T02:48:21;78.13;;;70.78;;
8017;SDS011;4054;52.666;4.770;2023-09-18T02:48:53;79.10;;;71.50;;
8017;SDS011;4054;52.666;4.770;2023-09-18T02:49:26;80.57;;;72.57;;
8017;SDS011;4054;52.666;4.770;2023-09-18T02:49:58;78.75;;;71.03;;
8017;SDS011;4054;52.666;4.770;2023-09-18T02:50:30;79.35;;;71.50;;
8017;SDS011;4054;52.666;4.770;2023-09-18T02:51:02;78.32;;;71.07;;
8017;SDS011;4054;52.666;4.770;2023-09-18T02:51:35;78.97;;;71.30;;
8017;SDS011;4054;52.666;4.770;2023-09-18T02:52:07;80.40;;;72.53;;
8017;SDS011;4054;52.666;4.770;2023-09-18T02:52:39;80.60;;;72.45;;
8017;SDS011;4054;52.666;4.770;2023-09-18T02:53:15;79.47;;;72.03;;
8017;SDS011;4054;52.666;4.770;2023-09-18T02:53:49;79.05;;;71.70;;
8017;SDS011;4054;52.666;4.770;2023-09-18T02:54:22;80.00;;;72.10;;
8017;SDS011;4054;52.666;4.770;2023-09-18T02:54:54;78.50;;;71.60;;
8017;SDS011;4054;52.666;4.770;2023-09-18T02:55:26;79.18;;;71.63;;
8017;SDS011;4054;52.666;4.770;2023-09-18T02:55:59;77.05;;;69.93;;
8017;SDS011;4054;52.666;4.770;2023-09-18T02:56:31;78.40;;;70.82;;
8017;SDS011;4054;52.666;4.770;2023-09-18T02:57:04;79.45;;;71.85;;
8017;SDS011;4054;52.666;4.770;2023-09-18T02:57:35;77.05;;;69.82;;
8017;SDS011;4054;52.666;4.770;2023-09-18T02:58:07;78.03;;;70.68;;
8017;SDS011;4054;52.666;4.770;2023-09-18T02:58:40;79.40;;;71.90;;
8017;SDS011;4054;52.666;4.770;2023-09-18T02:59:14;78.13;;;70.75;;
8017;SDS011;4054;52.666;4.770;2023-09-18T02:59:45;78.50;;;70.93;;
8017;SDS011;4054;52.666;4.770;2023-09-18T03:00:18;78.28;;;71.03;;
8017;SDS011;4054;52.666;4.770;2023-09-18T03:01:07;79.20;;;71.88;;
8017;SDS011;4054;52.666;4.770;2023-09-18T03:01:40;77.13;;;69.85;;
8017;SDS011;4054;52.666;4.770;2023-09-18T03:02:12;78.63;;;71.45;;
8017;SDS011;4054;52.666;4.770;2023-09-18T03:02:44;77.95;;;70.57;;
8017;SDS011;4054;52.666;4.770;2023-09-18T03:03:16;79.80;;;72.25;;
8017;SDS011;4054;52.666;4.770;2023-09-18T03:03:49;77.63;;;70.35;;
8017;SDS011;4054;52.666;4.770;2023-09-18T03:04:21;79.00;;;71.40;;
8017;SDS011;4054;52.666;4.770;2023-09-18T03:04:53;77.70;;;70.30;;
8017;SDS011;4054;52.666;4.770;2023-09-18T03:05:25;78.40;;;71.00;;
8017;SDS011;4054;52.666;4.770;2023-09-18T03:06:01;78.57;;;71.07;;
8017;SDS011;4054;52.666;4.770;2023-09-18T03:06:33;79.68;;;71.80;;
8017;SDS011;4054;52.666;4.770;2023-09-18T03:07:05;77.55;;;70.30;;
8017;SDS011;4054;52.666;4.770;2023-09-18T03:07:37;77.43;;;70.35;;
8017;SDS011;4054;52.666;4.770;2023-09-18T03:08:10;79.20;;;71.70;;
8017;SDS011;4054;52.666;4.770;2023-09-18T03:08:43;78.13;;;70.93;;
8017;SDS011;4054;52.666;4.770;2023-09-18T03:09:15;78.07;;;70.78;;
8017;SDS011;4054;52.666;4.770;2023-09-18T03:09:49;78.63;;;71.47;;
8017;SDS011;4054;52.666;4.770;2023-09-18T03:10:24;78.90;;;71.60;;
8017;SDS011;4054;52.666;4.770;2023-09-18T03:10:55;79.53;;;71.80;;
8017;SDS011;4054;52.666;4.770;2023-09-18T03:11:27;79.57;;;71.50;;
8017;SDS011;4054;52.666;4.770;2023-09-18T03:12:00;78.57;;;71.22;;
8017;SDS011;4054;52.666;4.770;2023-09-18T03:12:33;78.65;;;71.15;;
8017;SDS011;4054;52.666;4.770;2023-09-18T03:13:08;77.35;;;69.72;;
8017;SDS011;4054;52.666;4.770;2023-09-18T03:13:43;78.40;;;70.80;;
8017;SDS011;4054;52.666;4.770;2023-09-18T03:14:23;79.18;;;71.43;;
8017;SDS011;4054;52.666;4.770;2023-09-18T03:14:55;77.20;;;70.30;;
8017;SDS011;4054;52.666;4.770;2023-09-18T03:16:33;78.93;;;71.53;;
8017;SDS011;4054;52.666;4.770;2023-09-18T03:17:09;78.13;;;70.88;;
8017;SDS011;4054;52.666;4.770;2023-09-18T03:17:42;77.80;;;70.63;;
8017;SDS011;4054;52.666;4.770;2023-09-18T03:18:14;77.07;;;70.18;;
8017;SDS011;4054;52.666;4.770;2023-09-18T03:18:48;78.25;;;71.20;;
8017;SDS011;4054;52.666;4.770;2023-09-18T03:19:21;77.63;;;70.53;;
8017;SDS011;4054;52.666;4.770;2023-09-18T03:19:54;77.60;;;70.43;;
8017;SDS011;4054;52.666;4.770;2023-09-18T03:20:27;76.68;;;69.82;;
8017;SDS011;4054;52.666;4.770;2023-09-18T03:21:00;77.30;;;69.78;;
8017;SDS011;4054;52.666;4.770;2023-09-18T03:21:32;76.40;;;69.45;;